Time;durP1;ratioP1;P1;durP2;ratioP2;P2;SDS_P1;SDS_P2;PMS_P1;PMS_P2;Temp;Humidity;BMP_temperature;BMP_pressure;BME280_temperature;BME280_humidity;BME280_pressure;Samples;Min_cycle;Max_cycle;Signal;HPM_P1;HPM_P2
2021/06/13 00:00:11;;;;;;;6.92;4.72;;;;;;;17.70;100.00;100393.89;1711366;82;21546;-86
2021/06/13 00:02:39;;;;;;;7.92;5.12;;;;;;;17.65;100.00;100384.34;1717675;82;21080;-86
2021/06/13 00:05:08;;;;;;;6.87;4.58;;;;;;;17.60;100.00;100383.33;1720737;82;21000;-86
2021/06/13 00:07:34;;;;;;;9.08;4.92;;;;;;;17.58;100.00;100383.94;1720510;82;21679;-87
2021/06/13 00:10:00;;;;;;;16.02;5.42;;;;;;;17.56;100.00;100385.85;1721185;82;21438;-87
2021/06/13 00:12:27;;;;;;;7.45;4.80;;;;;;;17.54;100.00;100376.97;1718713;82;21253;-86
2021/06/13 00:14:55;;;;;;;8.55;5.05;;;;;;;17.52;100.00;100374.85;1663491;85;20995;-87
2021/06/13 00:17:21;;;;;;;6.87;4.60;;;;;;;17.51;100.00;100370.41;1706033;83;20996;-87
2021/06/13 00:19:48;;;;;;;7.50;4.80;;;;;;;17.46;100.00;100370.25;1725527;82;21481;-87
2021/06/13 00:22:14;;;;;;;10.25;5.00;;;;;;;17.41;100.00;100372.42;1715993;82;21015;-87
2021/06/13 00:24:41;;;;;;;9.90;4.45;;;;;;;17.36;100.00;100369.17;1708799;83;20936;-87
2021/06/13 00:27:08;;;;;;;10.75;4.78;;;;;;;17.32;100.00;100363.09;1710411;83;21172;-87
2021/06/13 00:29:34;;;;;;;10.08;5.03;;;;;;;17.27;100.00;100367.09;1702663;82;21773;-87
2021/06/13 00:32:01;;;;;;;12.85;5.53;;;;;;;17.24;100.00;100368.19;1701424;82;20922;-87
2021/06/13 00:34:28;;;;;;;7.97;5.58;;;;;;;17.21;100.00;100365.66;1709044;82;21029;-87
2021/06/13 00:36:55;;;;;;;12.55;5.47;;;;;;;17.19;100.00;100367.62;1712322;82;21024;-87
2021/06/13 00:39:22;;;;;;;7.55;5.55;;;;;;;17.17;100.00;100369.09;1720109;82;21671;-87
2021/06/13 00:41:49;;;;;;;11.10;5.90;;;;;;;17.17;100.00;100366.86;1721783;82;21103;-87
2021/06/13 00:44:15;;;;;;;12.53;5.60;;;;;;;17.16;100.00;100357.00;1722211;82;21111;-87
2021/06/13 00:46:42;;;;;;;6.08;5.08;;;;;;;17.13;100.00;100362.16;1722438;82;21533;-87
2021/06/13 00:49:09;;;;;;;9.63;5.12;;;;;;;17.13;100.00;100351.80;1724939;82;21079;-87
2021/06/13 00:51:38;;;;;;;9.75;5.67;;;;;;;17.11;100.00;100349.18;1722672;82;21579;-87
2021/06/13 00:54:06;;;;;;;12.10;5.92;;;;;;;17.07;100.00;100347.66;1722888;82;20964;-87
2021/06/13 00:56:33;;;;;;;13.50;5.80;;;;;;;17.06;100.00;100343.22;1719822;82;20901;-87
2021/06/13 00:59:00;;;;;;;14.03;5.90;;;;;;;17.05;100.00;100342.84;1717045;82;21052;-87
2021/06/13 01:01:27;;;;;;;7.85;5.75;;;;;;;17.03;100.00;100342.08;1719050;82;21083;-87
2021/06/13 01:03:54;;;;;;;7.62;5.87;;;;;;;17.03;100.00;100335.31;1721837;81;21096;-87
2021/06/13 01:06:43;;;;;;;13.05;6.03;;;;;;;17.06;100.00;100333.74;1708687;81;21088;-87
2021/06/13 01:09:10;;;;;;;10.43;5.75;;;;;;;17.05;100.00;100329.30;1712052;81;21194;-87
2021/06/13 01:11:57;;;;;;;9.58;6.00;;;;;;;17.06;100.00;100318.84;1724213;81;21493;-86
2021/06/13 01:14:38;;;;;;;9.88;5.80;;;;;;;17.06;100.00;100331.03;1715510;81;20955;-87
2021/06/13 01:17:30;;;;;;;14.73;6.03;;;;;;;17.06;100.00;100321.55;1713131;81;21928;-85
2021/06/13 01:20:27;;;;;;;13.25;5.95;;;;;;;17.04;100.00;100321.68;1718883;81;21047;-86
2021/06/13 01:23:17;;;;;;;12.43;5.97;;;;;;;17.05;100.00;100319.83;1710983;83;21139;-85
2021/06/13 01:26:09;;;;;;;9.05;5.60;;;;;;;17.05;100.00;100321.17;1711900;81;21067;-85
2021/06/13 01:29:10;;;;;;;13.35;5.70;;;;;;;17.04;100.00;100322.15;1726336;81;21371;-85
2021/06/13 01:31:45;;;;;;;17.07;6.33;;;;;;;17.03;100.00;100314.53;1726833;81;21123;-85
2021/06/13 01:34:19;;;;;;;8.98;4.95;;;;;;;17.03;100.00;100315.00;1729697;81;20937;-84
2021/06/13 01:36:47;;;;;;;6.62;5.37;;;;;;;17.02;100.00;100322.75;1706951;82;21106;-85
2021/06/13 01:39:18;;;;;;;10.82;5.95;;;;;;;17.01;100.00;100313.74;1696883;83;21076;-85
2021/06/13 01:41:46;;;;;;;8.80;5.90;;;;;;;17.00;100.00;100311.16;1717212;81;21545;-84
2021/06/13 01:44:13;;;;;;;11.73;5.85;;;;;;;16.99;100.00;100308.07;1731410;80;21124;-85
2021/06/13 01:46:41;;;;;;;8.55;5.90;;;;;;;16.99;100.00;100314.84;1700467;83;21028;-85
2021/06/13 01:49:11;;;;;;;8.65;5.78;;;;;;;16.98;100.00;100315.78;1714278;82;21059;-87
2021/06/13 01:51:38;;;;;;;10.28;5.67;;;;;;;16.98;100.00;100321.20;1719050;81;21080;-86
2021/06/13 01:54:06;;;;;;;8.63;5.67;;;;;;;16.96;100.00;100317.73;1710365;81;21080;-87
2021/06/13 01:56:36;;;;;;;9.38;5.92;;;;;;;16.95;100.00;100320.06;1711292;81;21166;-87
2021/06/13 01:59:04;;;;;;;10.50;5.65;;;;;;;16.93;100.00;100313.89;1721813;81;21052;-86
2021/06/13 02:01:32;;;;;;;9.90;5.90;;;;;;;16.92;100.00;100320.28;1723604;81;21007;-87
2021/06/13 02:03:59;;;;;;;9.75;6.03;;;;;;;16.93;100.00;100319.30;1722766;81;20969;-87
2021/06/13 02:06:35;;;;;;;7.75;5.53;;;;;;;16.93;100.00;100313.89;1656447;84;21033;-87
2021/06/13 02:09:06;;;;;;;11.63;6.17;;;;;;;16.91;100.00;100315.33;1703926;82;21549;-87
2021/06/13 02:11:33;;;;;;;12.35;5.78;;;;;;;16.92;100.00;100316.22;1712369;82;20858;-84
2021/06/13 02:14:01;;;;;;;13.68;5.90;;;;;;;16.92;100.00;100306.73;1715877;82;20961;-84
2021/06/13 02:16:30;;;;;;;10.10;6.05;;;;;;;16.95;100.00;100310.58;1684871;84;21117;-85
2021/06/13 02:18:58;;;;;;;9.40;6.30;;;;;;;16.98;100.00;100302.24;1714947;82;20893;-85
2021/06/13 02:21:26;;;;;;;10.53;6.10;;;;;;;17.04;100.00;100304.55;1685882;82;20957;-84
2021/06/13 02:23:54;;;;;;;9.03;5.83;;;;;;;17.13;100.00;100309.81;1709673;82;20972;-85
2021/06/13 02:26:20;;;;;;;12.93;5.72;;;;;;;17.25;100.00;100304.02;1707002;82;21362;-84
2021/06/13 02:28:53;;;;;;;7.10;5.65;;;;;;;17.39;100.00;100310.70;1708852;82;21067;-84
2021/06/13 02:31:25;;;;;;;6.53;5.65;;;;;;;17.51;100.00;100308.08;1711508;82;20924;-85
2021/06/13 02:33:53;;;;;;;9.88;5.55;;;;;;;17.65;100.00;100306.61;1714126;82;21810;-85
2021/06/13 02:36:20;;;;;;;9.30;5.30;;;;;;;17.76;100.00;100301.27;1683054;82;20984;-84
2021/06/13 02:38:49;;;;;;;10.88;5.83;;;;;;;17.86;100.00;100304.17;1710565;82;21091;-85
2021/06/13 02:41:16;;;;;;;9.78;5.55;;;;;;;17.92;99.19;100301.51;1689251;82;21585;-85
2021/06/13 02:43:43;;;;;;;7.95;5.05;;;;;;;17.98;98.16;100305.12;1711939;82;21092;-85
2021/06/13 02:46:10;;;;;;;11.80;5.37;;;;;;;18.01;97.04;100303.56;1698156;84;21126;-86
2021/06/13 02:48:37;;;;;;;14.85;5.47;;;;;;;18.03;96.32;100297.56;1699285;83;21020;-86
2021/06/13 02:51:04;;;;;;;12.13;5.47;;;;;;;18.03;95.26;100302.98;1700187;82;20964;-86
2021/06/13 02:53:43;;;;;;;11.03;5.33;;;;;;;18.00;94.66;100300.44;1696350;82;20907;-86
2021/06/13 02:56:34;;;;;;;8.45;5.47;;;;;;;18.01;94.25;100303.56;1695301;82;21044;-86
2021/06/13 02:59:19;;;;;;;14.47;5.50;;;;;;;18.03;93.99;100307.05;1694640;82;21619;-86
2021/06/13 03:01:48;;;;;;;9.90;5.70;;;;;;;18.08;93.31;100300.42;1699134;82;20968;-86
2021/06/13 03:04:18;;;;;;;15.80;6.03;;;;;;;18.10;92.31;100300.66;1682530;83;21923;-86
2021/06/13 03:06:46;;;;;;;10.23;4.87;;;;;;;18.10;92.00;100299.81;1714397;82;20898;-87
2021/06/13 03:09:13;;;;;;;11.60;5.20;;;;;;;18.11;91.40;100305.11;1708346;82;21090;-85
2021/06/13 03:11:40;;;;;;;7.47;4.75;;;;;;;18.14;90.98;100302.67;1691479;83;21162;-84
2021/06/13 03:14:07;;;;;;;7.92;5.03;;;;;;;18.17;90.61;100299.72;1709556;82;21946;-84
2021/06/13 03:16:34;;;;;;;6.42;4.50;;;;;;;18.22;90.32;100304.31;1717621;82;21012;-84
2021/06/13 03:19:02;;;;;;;6.30;4.90;;;;;;;18.28;89.69;100299.81;1713620;82;20963;-85
2021/06/13 03:21:29;;;;;;;7.95;5.05;;;;;;;18.33;89.26;100301.67;1714102;82;21538;-84
2021/06/13 03:23:56;;;;;;;6.22;4.90;;;;;;;18.42;88.77;100299.23;1687812;83;21118;-85
2021/06/13 03:26:24;;;;;;;7.42;5.30;;;;;;;18.47;88.41;100294.35;1711216;82;21138;-85
2021/06/13 03:28:54;;;;;;;10.38;5.10;;;;;;;18.51;87.95;100287.70;1711694;82;21110;-85
2021/06/13 03:31:19;;;;;;;7.97;4.97;;;;;;;18.57;87.78;100286.38;1707887;82;21092;-85
2021/06/13 03:33:49;;;;;;;9.08;5.17;;;;;;;18.60;87.65;100280.71;1664384;82;21617;-85
2021/06/13 03:36:16;;;;;;;10.98;5.03;;;;;;;18.67;87.54;100282.44;1705424;82;21504;-85
2021/06/13 03:38:46;;;;;;;9.33;5.30;;;;;;;18.74;87.28;100272.86;1708745;82;20914;-85
2021/06/13 03:41:14;;;;;;;8.00;4.87;;;;;;;18.82;87.08;100281.27;1720134;82;21071;-85
2021/06/13 03:43:41;;;;;;;5.90;4.72;;;;;;;18.90;86.91;100266.62;1715577;82;21098;-85
2021/06/13 03:46:08;;;;;;;7.65;5.12;;;;;;;19.00;86.42;100269.48;1708661;82;21430;-85
2021/06/13 03:48:38;;;;;;;7.50;4.95;;;;;;;19.10;86.14;100269.62;1712543;82;21691;-85
2021/06/13 03:51:05;;;;;;;8.60;4.90;;;;;;;19.20;85.74;100276.56;1714289;82;20898;-85
2021/06/13 03:53:31;;;;;;;8.43;5.00;;;;;;;19.27;85.42;100276.94;1721374;82;21445;-85
2021/06/13 03:56:01;;;;;;;7.80;4.95;;;;;;;19.32;85.17;100273.36;1706343;83;21416;-86
2021/06/13 03:58:28;;;;;;;6.37;4.92;;;;;;;19.40;84.83;100271.39;1718865;82;21572;-85
2021/06/13 04:00:55;;;;;;;7.65;5.05;;;;;;;19.50;84.53;100268.80;1706938;82;21526;-85
2021/06/13 04:03:21;;;;;;;9.20;5.10;;;;;;;19.61;84.21;100275.61;1684612;83;21097;-85
2021/06/13 04:05:49;;;;;;;9.65;5.40;;;;;;;19.71;83.37;100275.22;1712362;82;21075;-86
2021/06/13 04:08:15;;;;;;;7.80;4.78;;;;;;;19.79;82.85;100277.83;1716978;82;20987;-85
2021/06/13 04:10:44;;;;;;;7.92;5.10;;;;;;;19.85;82.60;100271.88;1717487;82;21019;-86
2021/06/13 04:13:11;;;;;;;9.53;5.05;;;;;;;19.94;82.22;100273.86;1695796;83;21158;-86
2021/06/13 04:15:39;;;;;;;6.83;4.80;;;;;;;20.04;81.48;100276.69;1710975;82;20981;-88
2021/06/13 04:18:09;;;;;;;14.50;5.05;;;;;;;20.10;81.39;100275.33;1667368;84;21128;-89
2021/06/13 04:20:36;;;;;;;12.43;5.53;;;;;;;20.23;80.83;100276.05;1650992;84;21088;-88
2021/06/13 04:23:04;;;;;;;6.50;5.00;;;;;;;20.34;80.49;100277.86;1715751;82;21017;-88
2021/06/13 04:25:33;;;;;;;8.58;5.22;;;;;;;20.46;79.93;100275.97;1705653;82;20972;-88
2021/06/13 04:27:59;;;;;;;7.17;5.08;;;;;;;20.53;79.25;100273.08;1705645;82;20940;-87
2021/06/13 04:30:27;;;;;;;8.28;5.17;;;;;;;20.61;78.60;100268.34;1714419;82;21041;-88
2021/06/13 04:32:54;;;;;;;6.90;5.08;;;;;;;20.70;78.04;100266.19;1706826;82;21033;-88
2021/06/13 04:35:20;;;;;;;8.98;5.35;;;;;;;20.81;77.57;100269.38;1706987;82;20992;-88
2021/06/13 04:37:48;;;;;;;8.13;5.10;;;;;;;20.92;76.91;100263.52;1709657;82;21094;-88
2021/06/13 04:40:18;;;;;;;6.33;4.97;;;;;;;21.00;76.27;100268.67;1709263;82;20890;-87
2021/06/13 04:42:43;;;;;;;10.48;4.78;;;;;;;21.13;76.01;100271.19;1712702;82;21075;-88
2021/06/13 04:45:11;;;;;;;7.00;4.28;;;;;;;21.26;74.61;100275.54;1708767;82;21591;-88
2021/06/13 04:47:38;;;;;;;12.18;4.92;;;;;;;21.40;73.93;100277.05;1727913;82;20984;-88
2021/06/13 04:50:06;;;;;;;6.70;4.20;;;;;;;21.54;72.86;100272.60;1713565;82;21138;-88
2021/06/13 04:52:32;;;;;;;9.95;4.42;;;;;;;21.65;72.25;100270.30;1709885;83;20973;-88
2021/06/13 04:55:31;;;;;;;7.85;4.30;;;;;;;21.80;70.94;100269.94;1717897;82;21087;-89
2021/06/13 04:58:24;;;;;;;5.90;4.10;;;;;;;21.93;69.72;100269.69;1701613;82;21440;-88
2021/06/13 05:00:50;;;;;;;10.18;4.20;;;;;;;22.08;69.23;100275.60;1706151;82;21060;-87
2021/06/13 05:03:18;;;;;;;10.23;4.00;;;;;;;22.22;68.57;100273.84;1718766;82;21863;-86
2021/06/13 05:05:45;;;;;;;5.45;3.92;;;;;;;22.33;67.62;100266.88;1709795;82;21039;-85
2021/06/13 05:08:11;;;;;;;6.28;3.90;;;;;;;22.45;67.10;100266.75;1710976;82;20989;-85
2021/06/13 05:10:38;;;;;;;12.18;5.17;;;;;;;22.58;67.22;100267.34;1713857;82;21049;-87
2021/06/13 05:13:15;;;;;;;7.65;3.92;;;;;;;22.72;65.97;100269.28;1727235;82;21099;-87
2021/06/13 05:15:42;;;;;;;4.47;3.95;;;;;;;22.80;64.97;100269.94;1714747;81;21767;-88
2021/06/13 05:18:11;;;;;;;4.20;3.80;;;;;;;22.87;64.47;100266.45;1707176;83;21954;-88
2021/06/13 05:20:37;;;;;;;6.22;3.60;;;;;;;22.96;64.02;100266.59;1715132;82;22248;-88
2021/06/13 05:23:05;;;;;;;4.78;3.92;;;;;;;23.08;63.84;100272.76;1722831;82;21091;-85
2021/06/13 05:25:35;;;;;;;9.08;4.45;;;;;;;23.18;63.37;100268.99;1713963;82;21016;-85
2021/06/13 05:28:03;;;;;;;9.23;4.50;;;;;;;23.26;63.62;100267.41;1703075;82;21790;-85
2021/06/13 05:30:33;;;;;;;8.48;4.47;;;;;;;23.34;63.33;100273.51;1712363;82;20966;-85
2021/06/13 05:33:00;;;;;;;5.42;4.35;;;;;;;23.40;63.50;100276.52;1698705;82;21028;-85
2021/06/13 05:35:27;;;;;;;5.72;4.25;;;;;;;23.49;63.04;100280.23;1715306;82;21952;-87
2021/06/13 05:37:56;;;;;;;5.55;4.58;;;;;;;23.53;62.85;100276.67;1716711;82;21052;-89
2021/06/13 05:40:25;;;;;;;5.53;4.45;;;;;;;23.61;62.38;100274.06;1705637;82;21080;-88
2021/06/13 05:42:52;;;;;;;6.95;4.08;;;;;;;23.71;61.73;100278.97;1707704;82;21047;-88
2021/06/13 05:45:21;;;;;;;6.72;4.50;;;;;;;23.85;61.00;100279.48;1707708;82;21027;-88
2021/06/13 05:47:48;;;;;;;4.70;3.98;;;;;;;23.91;60.69;100270.66;1713275;82;20985;-89
2021/06/13 05:50:15;;;;;;;4.85;4.22;;;;;;;24.00;59.94;100275.23;1718980;82;21060;-87
2021/06/13 05:52:42;;;;;;;6.03;3.52;;;;;;;24.08;59.71;100277.21;1714310;82;21748;-88
2021/06/13 05:55:11;;;;;;;6.22;3.42;;;;;;;24.12;58.62;100277.28;1710093;82;22245;-88
2021/06/13 05:57:38;;;;;;;5.10;3.67;;;;;;;24.13;58.21;100271.28;1718334;82;20877;-85
2021/06/13 06:00:20;;;;;;;4.92;3.50;;;;;;;24.16;58.17;100275.08;1714526;82;21009;-85
2021/06/13 06:02:47;;;;;;;7.03;4.10;;;;;;;24.25;58.33;100271.43;1706626;83;21088;-86
2021/06/13 06:05:16;;;;;;;5.42;3.92;;;;;;;24.42;59.10;100275.68;1711677;82;21610;-86
2021/06/13 06:07:43;;;;;;;4.37;3.62;;;;;;;24.50;59.05;100275.78;1710763;82;20919;-85
2021/06/13 06:10:10;;;;;;;4.97;3.58;;;;;;;24.51;58.36;100265.17;1713048;82;21028;-85
2021/06/13 06:12:37;;;;;;;4.42;3.55;;;;;;;24.52;57.64;100270.13;1702655;80;21084;-86
2021/06/13 06:15:07;;;;;;;5.58;4.28;;;;;;;24.56;57.27;100269.66;1709405;82;21392;-86
2021/06/13 06:17:34;;;;;;;6.55;3.22;;;;;;;24.66;57.18;100267.37;1708211;82;21835;-86
2021/06/13 06:20:01;;;;;;;9.90;3.22;;;;;;;24.75;55.91;100264.54;1705388;82;20986;-89
2021/06/13 06:22:27;;;;;;;6.12;3.30;;;;;;;24.84;55.73;100260.52;1707289;82;21902;-89
2021/06/13 06:24:54;;;;;;;4.10;2.83;;;;;;;24.92;55.09;100262.47;1720154;82;22283;-89
2021/06/13 06:27:21;;;;;;;7.67;3.35;;;;;;;24.93;55.16;100251.84;1707594;81;21724;-89
2021/06/13 06:29:47;;;;;;;5.70;3.05;;;;;;;24.92;55.34;100248.75;1705559;82;21536;-89
2021/06/13 06:32:14;;;;;;;5.08;2.83;;;;;;;24.98;54.43;100253.59;1705923;82;20895;-88
2021/06/13 06:34:42;;;;;;;3.58;2.90;;;;;;;25.10;54.56;100256.92;1708379;82;21146;-89
2021/06/13 06:37:08;;;;;;;3.55;2.98;;;;;;;25.19;54.43;100249.09;1713165;81;21465;-89
2021/06/13 06:39:35;;;;;;;5.75;3.17;;;;;;;25.26;54.07;100252.05;1712319;82;20930;-86
2021/06/13 06:42:01;;;;;;;2.90;2.70;;;;;;;25.27;54.19;100245.53;1705673;83;21138;-89
2021/06/13 06:44:28;;;;;;;3.45;2.40;;;;;;;25.36;52.99;100250.06;1701674;82;21560;-88
2021/06/13 06:46:55;;;;;;;3.08;2.60;;;;;;;25.41;52.06;100247.69;1702432;82;21115;-88
2021/06/13 06:49:21;;;;;;;2.55;2.33;;;;;;;25.45;51.59;100247.70;1664221;84;21163;-88
2021/06/13 06:51:48;;;;;;;5.72;2.80;;;;;;;25.50;51.53;100239.52;1718160;82;21095;-90
2021/06/13 06:54:14;;;;;;;3.98;2.77;;;;;;;25.53;51.46;100237.31;1712109;82;21429;-88
2021/06/13 06:56:40;;;;;;;4.37;2.80;;;;;;;25.60;52.02;100237.52;1717863;82;20961;-89
2021/06/13 06:59:07;;;;;;;4.35;2.47;;;;;;;25.68;51.97;100232.05;1713418;82;21585;-88
2021/06/13 07:01:33;;;;;;;4.12;2.47;;;;;;;25.73;52.09;100240.64;1695885;83;21036;-89
2021/06/13 07:04:00;;;;;;;5.75;2.47;;;;;;;25.82;51.81;100235.20;1704901;82;20969;-88
2021/06/13 07:06:26;;;;;;;4.30;2.42;;;;;;;25.90;50.66;100235.22;1705502;82;21763;-88
2021/06/13 07:08:56;;;;;;;5.62;3.05;;;;;;;25.95;50.83;100237.47;1709303;82;21111;-88
2021/06/13 07:11:23;;;;;;;3.17;2.77;;;;;;;26.03;52.11;100236.11;1719430;82;20914;-88
2021/06/13 07:13:49;;;;;;;3.72;2.75;;;;;;;26.10;52.20;100239.05;1710459;82;21582;-90
2021/06/13 07:16:18;;;;;;;5.03;2.65;;;;;;;26.14;52.14;100230.81;1707053;82;20953;-88
2021/06/13 07:18:44;;;;;;;4.12;2.60;;;;;;;26.11;52.05;100235.27;1708604;82;22318;-89
2021/06/13 07:21:11;;;;;;;5.70;2.42;;;;;;;26.08;52.66;100238.36;1711652;82;21567;-88
2021/06/13 07:23:38;;;;;;;5.95;2.55;;;;;;;26.04;53.09;100230.96;1716410;82;21007;-86
2021/06/13 07:26:06;;;;;;;2.87;2.30;;;;;;;26.02;54.01;100234.39;1707285;82;20996;-86
2021/06/13 07:28:34;;;;;;;3.58;2.47;;;;;;;26.01;54.90;100233.55;1709476;83;20998;-86
2021/06/13 07:31:01;;;;;;;2.50;2.30;;;;;;;25.96;55.28;100231.80;1700370;82;21211;-85
2021/06/13 07:33:30;;;;;;;2.60;2.30;;;;;;;25.88;56.10;100234.53;1709749;82;21067;-85
2021/06/13 07:35:56;;;;;;;4.05;2.58;;;;;;;25.78;57.45;100236.56;1713044;82;21547;-85
2021/06/13 07:38:23;;;;;;;4.83;2.80;;;;;;;25.71;58.18;100234.46;1721893;82;21047;-86
2021/06/13 07:40:49;;;;;;;4.50;2.58;;;;;;;25.66;58.36;100227.77;1694516;82;21806;-86
2021/06/13 07:43:16;;;;;;;3.47;2.22;;;;;;;25.62;58.54;100231.36;1708353;82;21915;-86
2021/06/13 07:45:43;;;;;;;4.50;2.20;;;;;;;25.54;58.44;100222.56;1707388;82;21036;-86
2021/06/13 07:48:10;;;;;;;3.08;2.45;;;;;;;25.46;58.33;100228.84;1709670;82;21067;-86
2021/06/13 07:50:37;;;;;;;3.60;2.20;;;;;;;25.40;58.88;100228.13;1705247;82;21476;-85
2021/06/13 07:53:06;;;;;;;3.22;2.30;;;;;;;25.32;59.57;100229.48;1699929;82;21433;-86
2021/06/13 07:55:34;;;;;;;3.17;2.17;;;;;;;25.27;59.34;100216.73;1706273;82;22031;-85
2021/06/13 07:58:01;;;;;;;2.60;2.25;;;;;;;25.25;59.44;100224.27;1731500;82;20949;-85
2021/06/13 08:00:27;;;;;;;3.62;2.45;;;;;;;25.23;59.98;100215.34;1703295;82;21083;-85
2021/06/13 08:02:53;;;;;;;4.87;2.50;;;;;;;25.27;60.15;100223.59;1711056;82;21079;-85
2021/06/13 08:05:27;;;;;;;3.10;2.27;;;;;;;25.27;59.98;100223.59;1694793;82;21359;-88
2021/06/13 08:08:00;;;;;;;7.65;2.47;;;;;;;25.28;59.50;100211.59;1701938;82;21132;-88
2021/06/13 08:10:29;;;;;;;6.05;2.25;;;;;;;25.27;58.93;100222.22;1705393;82;21603;-88
2021/06/13 08:12:55;;;;;;;3.60;2.42;;;;;;;25.27;59.14;100222.22;1703326;82;21328;-89
2021/06/13 08:15:24;;;;;;;3.55;2.10;;;;;;;25.28;58.79;100217.08;1707396;82;21362;-88
2021/06/13 08:17:50;;;;;;;3.60;2.27;;;;;;;25.30;58.68;100226.00;1709870;82;21063;-88
2021/06/13 08:20:18;;;;;;;2.72;2.17;;;;;;;25.30;56.93;100219.15;1706208;82;21706;-88
2021/06/13 08:22:50;;;;;;;4.78;2.40;;;;;;;25.26;55.77;100220.50;1703917;82;21063;-88
2021/06/13 08:25:15;;;;;;;6.83;2.20;;;;;;;25.24;55.21;100220.69;1705682;83;20942;-87
2021/06/13 08:27:42;;;;;;;4.15;2.15;;;;;;;25.23;56.89;100216.72;1705169;82;20934;-88
2021/06/13 08:30:11;;;;;;;2.83;2.08;;;;;;;25.29;57.56;100216.06;1708104;82;20949;-88
2021/06/13 08:32:38;;;;;;;3.75;2.50;;;;;;;25.36;57.67;100210.78;1713743;82;21108;-87
2021/06/13 08:35:06;;;;;;;4.25;1.98;;;;;;;25.40;57.94;100209.42;1692697;82;21077;-89
2021/06/13 08:37:33;;;;;;;2.95;2.17;;;;;;;25.42;57.70;100205.50;1707537;82;21571;-89
2021/06/13 08:40:00;;;;;;;2.25;2.05;;;;;;;25.40;58.09;100213.05;1690191;82;21047;-88
2021/06/13 08:42:26;;;;;;;6.58;2.05;;;;;;;25.39;57.79;100214.07;1705168;82;21483;-89
2021/06/13 08:44:53;;;;;;;3.02;1.95;;;;;;;25.40;57.98;100211.67;1704333;82;21813;-88
2021/06/13 08:47:22;;;;;;;5.37;2.25;;;;;;;25.40;57.70;100203.44;1714316;82;21796;-88
2021/06/13 08:49:48;;;;;;;5.15;2.20;;;;;;;25.37;57.50;100207.89;1712057;82;21119;-88
2021/06/13 08:52:16;;;;;;;2.80;1.90;;;;;;;25.35;57.72;100214.05;1709048;82;21178;-88
2021/06/13 08:54:42;;;;;;;6.40;2.20;;;;;;;25.35;57.93;100208.56;1711384;82;21034;-88
2021/06/13 08:57:10;;;;;;;2.87;2.10;;;;;;;25.35;57.41;100203.08;1701691;82;21779;-88
2021/06/13 08:59:39;;;;;;;3.62;2.30;;;;;;;25.38;57.04;100204.62;1705288;82;21659;-88
2021/06/13 09:02:06;;;;;;;5.28;2.05;;;;;;;25.38;56.04;100205.49;1711065;82;21222;-88
2021/06/13 09:04:34;;;;;;;4.67;2.27;;;;;;;25.41;56.88;100201.05;1708814;82;21614;-89
2021/06/13 09:07:15;;;;;;;3.40;2.22;;;;;;;25.46;56.68;100200.56;1707465;82;21127;-88
2021/06/13 09:09:42;;;;;;;7.20;2.20;;;;;;;25.48;56.51;100194.92;1677702;82;21141;-88
2021/06/13 09:12:10;;;;;;;6.35;2.10;;;;;;;25.49;56.52;100192.52;1674365;84;38137;-89
2021/06/13 09:14:43;;;;;;;6.00;2.33;;;;;;;25.49;55.26;100186.53;1699060;82;21163;-88
2021/06/13 09:17:26;;;;;;;4.37;2.30;;;;;;;25.48;54.05;100182.08;1701270;82;21306;-88
2021/06/13 09:20:08;;;;;;;5.12;2.20;;;;;;;25.45;54.66;100183.22;1697011;82;21522;-88
2021/06/13 09:22:36;;;;;;;3.77;1.92;;;;;;;25.46;54.80;100176.70;1700772;82;21731;-88
2021/06/13 09:25:13;;;;;;;3.80;2.08;;;;;;;25.53;54.76;100171.45;1672149;84;21109;-88
2021/06/13 09:27:42;;;;;;;3.92;2.00;;;;;;;25.57;54.88;100171.46;1697147;82;21005;-88
2021/06/13 09:30:10;;;;;;;3.17;1.92;;;;;;;25.56;55.00;100176.61;1682670;82;21314;-89
2021/06/13 09:33:12;;;;;;;4.95;2.10;;;;;;;25.55;53.94;100179.53;1701325;82;21099;-87
2021/06/13 09:35:41;;;;;;;5.65;2.05;;;;;;;25.56;55.00;100178.51;1682878;82;21418;-88
2021/06/13 09:38:22;;;;;;;3.50;2.10;;;;;;;25.60;55.24;100168.91;1684477;84;21116;-88
2021/06/13 09:40:57;;;;;;;3.08;2.05;;;;;;;25.56;55.17;100173.86;1693399;82;21633;-88
2021/06/13 09:43:39;;;;;;;2.42;2.00;;;;;;;25.50;56.32;100173.66;1695538;84;21470;-88
2021/06/13 09:46:11;;;;;;;10.23;2.30;;;;;;;25.45;55.99;100174.99;1706173;79;21320;-88
2021/06/13 09:48:45;;;;;;;3.08;2.50;;;;;;;25.43;55.79;100173.45;1697900;80;21089;-88
2021/06/13 09:51:17;;;;;;;5.40;2.17;;;;;;;25.41;55.50;100162.63;1696764;80;20921;-87
2021/06/13 09:53:46;;;;;;;2.25;1.92;;;;;;;25.37;55.27;100169.48;1700004;80;20965;-88
2021/06/13 09:56:25;;;;;;;3.92;2.15;;;;;;;25.32;55.27;100159.52;1698996;80;21036;-87
2021/06/13 09:59:13;;;;;;;3.60;2.12;;;;;;;25.26;55.29;100165.64;1684574;81;20993;-88
2021/06/13 10:01:48;;;;;;;2.25;2.00;;;;;;;25.16;56.06;100154.30;1708676;80;21084;-88
2021/06/13 10:04:28;;;;;;;7.28;2.40;;;;;;;25.14;56.68;100159.09;1707484;79;21092;-88
2021/06/13 10:06:53;;;;;;;4.60;2.45;;;;;;;25.11;57.27;100153.06;1712057;79;20901;-88
2021/06/13 10:09:23;;;;;;;3.62;2.40;;;;;;;25.07;57.90;100148.94;1705522;82;21715;-89
2021/06/13 10:11:52;;;;;;;5.92;2.62;;;;;;;24.98;58.72;100143.42;1710954;82;21051;-88
2021/06/13 10:14:19;;;;;;;3.85;2.20;;;;;;;24.90;59.67;100143.35;1693033;80;21087;-86
2021/06/13 10:16:51;;;;;;;3.15;2.25;;;;;;;24.83;60.60;100128.06;1709802;80;20901;-85
2021/06/13 10:19:26;;;;;;;10.63;2.40;;;;;;;24.73;61.25;100118.55;1717005;80;20931;-88
2021/06/13 10:22:01;;;;;;;6.78;2.40;;;;;;;24.61;62.26;100125.34;1701785;81;22154;-88
2021/06/13 10:24:28;;;;;;;6.05;2.52;;;;;;;24.49;63.51;100115.65;1717024;79;21004;-87
2021/06/13 10:26:58;;;;;;;6.83;2.80;;;;;;;24.36;64.50;100120.18;1711180;80;21106;-88
2021/06/13 10:29:27;;;;;;;6.50;2.70;;;;;;;24.27;65.65;100117.39;1710252;80;21326;-87
2021/06/13 10:31:56;;;;;;;10.18;2.67;;;;;;;24.18;66.71;100124.67;1715763;80;21071;-88
2021/06/13 10:34:24;;;;;;;3.50;2.60;;;;;;;24.11;67.76;100119.98;1718261;82;21111;-89
2021/06/13 10:36:51;;;;;;;5.70;2.70;;;;;;;24.03;68.60;100110.69;1702987;82;21062;-88
2021/06/13 10:39:21;;;;;;;5.17;2.70;;;;;;;23.98;69.25;100117.09;1712856;82;21124;-89
2021/06/13 10:41:48;;;;;;;4.87;3.40;;;;;;;23.95;70.19;100111.93;1714838;82;20992;-88
2021/06/13 10:44:20;;;;;;;7.42;3.62;;;;;;;23.91;70.82;100118.73;1708666;82;21455;-88
2021/06/13 10:46:56;;;;;;;7.80;3.75;;;;;;;23.87;71.21;100100.92;1713197;82;21052;-88
2021/06/13 10:49:33;;;;;;;6.53;3.30;;;;;;;23.85;71.47;100105.69;1702664;82;21040;-89
2021/06/13 10:52:10;;;;;;;4.28;3.60;;;;;;;23.77;72.01;100097.41;1708107;82;21125;-88
2021/06/13 10:54:55;;;;;;;7.58;3.42;;;;;;;23.68;72.85;100110.15;1707120;80;21474;-88
2021/06/13 10:57:32;;;;;;;8.88;3.72;;;;;;;23.67;73.46;100095.59;1708369;82;21127;-88
2021/06/13 11:00:22;;;;;;;10.72;3.70;;;;;;;23.63;73.57;100110.61;1698964;82;21517;-89
2021/06/13 11:02:59;;;;;;;4.45;3.42;;;;;;;23.57;73.61;100105.77;1703370;80;20973;-88
2021/06/13 11:05:41;;;;;;;5.80;3.90;;;;;;;23.52;73.59;100102.60;1701622;82;21936;-88
2021/06/13 11:08:08;;;;;;;7.25;3.95;;;;;;;23.47;73.62;100112.66;1720690;80;21324;-90
2021/06/13 11:10:37;;;;;;;6.25;3.75;;;;;;;23.43;73.81;100112.09;1711185;81;22266;-89
2021/06/13 11:13:17;;;;;;;5.53;3.40;;;;;;;23.42;73.98;100109.50;1709627;80;20988;-84
2021/06/13 11:15:48;;;;;;;10.43;3.52;;;;;;;23.43;73.95;100093.44;1723142;81;21017;-89
2021/06/13 11:18:28;;;;;;;6.30;3.00;;;;;;;23.48;73.06;100102.56;1729799;79;21675;-88
2021/06/13 11:21:18;;;;;;;6.53;3.12;;;;;;;23.49;72.65;100081.03;1711814;80;21159;-88
2021/06/13 11:23:46;;;;;;;6.37;3.08;;;;;;;23.51;72.15;100091.31;1715689;82;20985;-90
2021/06/13 11:26:32;;;;;;;5.15;3.60;;;;;;;23.48;72.01;100080.68;1713537;82;20987;-89
2021/06/13 11:28:58;;;;;;;7.45;3.50;;;;;;;23.43;71.78;100100.28;1710671;82;21136;-88
2021/06/13 11:31:25;;;;;;;7.55;3.60;;;;;;;23.42;72.34;100103.55;1708160;82;21104;-88
2021/06/13 11:33:57;;;;;;;9.58;3.37;;;;;;;23.46;71.99;100077.59;1717491;82;21119;-88